Time;durP1;ratioP1;P1;durP2;ratioP2;P2;SDS_P1;SDS_P2;PMS_P1;PMS_P2;Temp;Humidity;BMP_temperature;BMP_pressure;BME280_temperature;BME280_humidity;BME280_pressure;Samples;Min_cycle;Max_cycle;Signal;HPM_P1;HPM_P2
2023/05/24 00:00:23;;;;;;;12.43;3.85;;;;;;;6.23;99.32;102467.81;5072216;28;20024;-87
2023/05/24 00:02:48;;;;;;;15.07;4.53;;;;;;;6.01;99.74;102434.03;5072362;28;20060;-85
2023/05/24 00:05:15;;;;;;;12.75;4.50;;;;;;;6.29;99.69;102485.63;5072197;28;20029;-82
2023/05/24 00:07:41;;;;;;;11.90;4.32;;;;;;;6.17;99.71;102457.66;5071969;28;20472;-79
2023/05/24 00:10:07;;;;;;;14.50;5.10;;;;;;;6.26;99.85;102478.00;5054392;28;20035;-87
2023/05/24 00:12:32;;;;;;;11.73;4.38;;;;;;;6.20;99.89;102473.00;5053932;28;20032;-88
2023/05/24 00:14:59;;;;;;;12.70;3.75;;;;;;;6.16;100.00;102471.38;5072219;28;20021;-85
2023/05/24 00:17:24;;;;;;;17.90;4.40;;;;;;;5.97;100.00;102440.91;5071973;28;20025;-85
2023/05/24 00:19:51;;;;;;;11.80;3.95;;;;;;;6.12;100.00;102467.16;5071865;28;20356;-81
2023/05/24 00:22:19;;;;;;;13.65;4.07;;;;;;;6.06;100.00;102465.56;5072021;28;20029;-83
2023/05/24 00:24:46;;;;;;;13.80;4.30;;;;;;;5.94;100.00;102438.41;5072151;28;20024;-85
2023/05/24 00:27:12;;;;;;;10.73;4.55;;;;;;;6.01;100.00;102457.09;5071598;28;20029;-82
2023/05/24 00:29:37;;;;;;;12.32;4.35;;;;;;;5.93;100.00;102459.81;5071791;28;20024;-79
2023/05/24 00:32:03;;;;;;;10.20;4.00;;;;;;;5.94;100.00;102451.25;5071904;28;20028;-80
2023/05/24 00:34:28;;;;;;;11.00;4.18;;;;;;;5.92;100.00;102447.84;5071715;28;20034;-85
2023/05/24 00:36:53;;;;;;;12.15;4.03;;;;;;;5.89;100.00;102449.56;5074777;28;20483;-84
2023/05/24 00:39:19;;;;;;;10.93;4.80;;;;;;;5.83;100.00;102442.84;5075347;28;20071;-84
2023/05/24 00:41:44;;;;;;;12.90;5.05;;;;;;;5.71;100.00;102427.69;5075127;28;20024;-87
2023/05/24 00:44:10;;;;;;;13.60;4.63;;;;;;;5.81;100.00;102451.44;5075575;28;20058;-83
2023/05/24 00:46:36;;;;;;;14.90;4.03;;;;;;;5.59;100.00;102433.00;5075143;28;20032;-87
2023/05/24 00:49:03;;;;;;;17.35;4.53;;;;;;;5.58;100.00;102432.16;5075118;28;20036;-85
2023/05/24 00:51:31;;;;;;;10.98;4.30;;;;;;;5.59;100.00;102443.25;5075361;28;20480;-85
2023/05/24 00:53:56;;;;;;;11.88;5.00;;;;;;;5.63;100.00;102456.00;5074990;28;20099;-81
2023/05/24 00:56:22;;;;;;;11.63;4.13;;;;;;;5.64;100.00;102452.56;5075066;28;20055;-81
2023/05/24 00:58:49;;;;;;;11.32;4.00;;;;;;;5.63;100.00;102450.88;5075243;28;20021;-87
2023/05/24 01:01:14;;;;;;;12.95;4.50;;;;;;;5.58;100.00;102446.69;5075016;28;20024;-84
2023/05/24 01:03:40;;;;;;;10.10;4.55;;;;;;;5.57;100.00;102443.28;5075092;28;20044;-85
2023/05/24 01:06:07;;;;;;;9.73;4.47;;;;;;;5.38;100.00;102419.66;5074861;28;20168;-87
2023/05/24 01:08:41;;;;;;;11.27;4.47;;;;;;;5.54;100.00;102443.34;5074932;28;20112;-85
2023/05/24 01:11:35;;;;;;;8.77;3.80;;;;;;;5.52;100.00;102442.53;5075030;28;20020;-85
2023/05/24 01:14:28;;;;;;;11.40;4.22;;;;;;;5.47;100.00;102441.75;5074785;28;20071;-81
2023/05/24 01:17:05;;;;;;;8.43;4.47;;;;;;;5.43;100.00;102435.84;5074848;28;20041;-83
2023/05/24 01:19:55;;;;;;;13.85;4.40;;;;;;;5.40;100.00;102433.28;5074598;28;20041;-86
2023/05/24 01:22:33;;;;;;;12.32;4.03;;;;;;;5.13;100.00;102397.88;5074838;28;20459;-85
2023/05/24 01:25:06;;;;;;;11.10;4.47;;;;;;;5.31;100.00;102425.78;5074803;28;20029;-85
2023/05/24 01:27:35;;;;;;;13.60;4.38;;;;;;;5.32;100.00;102439.44;5074263;28;20559;-81
2023/05/24 01:30:03;;;;;;;12.68;4.32;;;;;;;5.25;100.00;102417.34;5074779;28;20028;-84
2023/05/24 01:32:29;;;;;;;11.45;4.05;;;;;;;5.21;100.00;102419.09;5074646;28;20024;-85
2023/05/24 01:34:55;;;;;;;8.70;4.22;;;;;;;5.05;100.00;102397.16;5074489;28;20098;-85
2023/05/24 01:37:21;;;;;;;11.40;4.03;;;;;;;5.16;100.00;102418.31;5074285;28;20029;-81
2023/05/24 01:39:47;;;;;;;12.50;4.35;;;;;;;5.09;100.00;102411.59;5074341;28;20024;-87
2023/05/24 01:42:21;;;;;;;14.23;4.63;;;;;;;5.22;100.00;102428.47;5074115;28;20028;-83
2023/05/24 01:45:01;;;;;;;10.00;4.80;;;;;;;5.16;100.00;102426.84;5074073;28;20043;-86
2023/05/24 01:47:26;;;;;;;14.88;4.55;;;;;;;5.16;100.00;102429.41;5073398;28;20085;-86
2023/05/24 01:49:55;;;;;;;13.35;4.55;;;;;;;5.07;100.00;102413.34;5074278;28;20028;-86
2023/05/24 01:52:26;;;;;;;12.00;4.32;;;;;;;4.98;100.00;102404.06;5074162;28;20039;-87
2023/05/24 01:54:55;;;;;;;10.30;4.07;;;;;;;5.03;100.00;102420.22;5074050;28;20076;-88
2023/05/24 01:57:22;;;;;;;10.15;3.83;;;;;;;5.00;100.00;102419.41;5055822;28;20040;-87
2023/05/24 01:59:49;;;;;;;11.32;4.03;;;;;;;4.98;100.00;102414.31;5073867;28;20024;-87
2023/05/24 02:02:15;;;;;;;12.05;4.30;;;;;;;4.94;100.00;102419.50;5073884;28;20024;-86
2023/05/24 02:04:40;;;;;;;12.77;4.93;;;;;;;4.96;100.00;102431.41;5074010;28;20028;-83
2023/05/24 02:07:06;;;;;;;10.38;4.80;;;;;;;4.93;100.00;102434.03;5073762;28;20480;-87
2023/05/24 02:09:31;;;;;;;12.20;3.92;;;;;;;4.90;100.00;102437.44;5073763;28;20067;-87
2023/05/24 02:11:57;;;;;;;12.90;4.38;;;;;;;4.87;100.00;102437.50;5073689;28;20035;-87
2023/05/24 02:14:23;;;;;;;11.07;3.92;;;;;;;4.76;100.00;102420.59;5073382;28;20025;-84
2023/05/24 02:16:49;;;;;;;13.68;4.22;;;;;;;4.68;100.00;102418.13;5073543;28;20028;-84
2023/05/24 02:19:16;;;;;;;9.30;4.07;;;;;;;4.54;100.00;102397.00;5073352;28;20052;-84
2023/05/24 02:21:41;;;;;;;12.02;4.68;;;;;;;4.54;100.00;102397.00;5074022;28;20022;-85
2023/05/24 02:24:10;;;;;;;9.27;4.10;;;;;;;4.50;100.00;102398.75;5074500;28;20104;-83
2023/05/24 02:26:35;;;;;;;9.63;4.10;;;;;;;4.73;100.00;102434.28;5074297;28;20028;-87
2023/05/24 02:29:01;;;;;;;9.75;4.68;;;;;;;4.63;100.00;102425.03;5072457;28;20502;-86
2023/05/24 02:31:27;;;;;;;11.55;4.03;;;;;;;4.69;100.00;102440.28;5074071;28;20025;-87
2023/05/24 02:33:54;;;;;;;8.60;4.03;;;;;;;4.59;100.00;102421.66;5073348;28;20062;-87
2023/05/24 02:36:22;;;;;;;11.13;4.32;;;;;;;4.66;100.00;102430.09;5073506;28;20024;-86
2023/05/24 02:38:47;;;;;;;15.77;5.43;;;;;;;4.66;100.00;102436.94;5073482;28;20020;-87
2023/05/24 02:41:16;;;;;;;9.88;4.32;;;;;;;4.66;100.00;102435.22;5073287;28;20025;-84
2023/05/24 02:43:42;;;;;;;10.90;4.80;;;;;;;4.61;100.00;102444.66;5073241;28;20040;-86
2023/05/24 02:46:08;;;;;;;12.13;4.70;;;;;;;4.58;100.00;102450.66;5073313;28;20028;-88
2023/05/24 02:48:33;;;;;;;8.98;3.95;;;;;;;4.58;100.00;102444.69;5073184;28;20452;-86
2023/05/24 02:51:02;;;;;;;10.10;4.15;;;;;;;4.56;100.00;102441.31;5073059;28;20031;-87
2023/05/24 02:53:27;;;;;;;11.90;4.88;;;;;;;4.55;100.00;102440.47;5073097;28;20016;-84
2023/05/24 02:55:52;;;;;;;9.27;4.38;;;;;;;4.40;100.00;102421.91;5073300;28;20494;-85
2023/05/24 02:58:18;;;;;;;11.90;4.97;;;;;;;4.46;100.00;102442.28;5072716;28;20028;-82
2023/05/24 03:00:43;;;;;;;11.70;4.82;;;;;;;4.38;100.00;102421.06;5054207;28;20028;-85
2023/05/24 03:03:08;;;;;;;12.05;4.68;;;;;;;4.49;100.00;102437.97;5055048;28;20081;-85
2023/05/24 03:05:34;;;;;;;15.52;5.70;;;;;;;4.36;100.00;102412.56;5072832;28;20061;-83
2023/05/24 03:07:59;;;;;;;12.32;5.00;;;;;;;4.53;100.00;102437.09;5072783;28;20100;-88
2023/05/24 03:10:24;;;;;;;13.65;4.97;;;;;;;4.57;100.00;102437.91;5072382;28;20024;-82
2023/05/24 03:12:50;;;;;;;15.05;6.03;;;;;;;4.58;100.00;102435.31;5072907;28;20039;-85
2023/05/24 03:15:15;;;;;;;12.10;5.07;;;;;;;4.59;100.00;102434.44;5072808;28;20383;-81
2023/05/24 03:17:40;;;;;;;15.48;5.43;;;;;;;4.60;100.00;102437.84;5072612;28;20049;-80
2023/05/24 03:20:06;;;;;;;13.35;5.25;;;;;;;4.61;100.00;102432.69;5072639;28;20021;-87
2023/05/24 03:22:32;;;;;;;12.95;5.55;;;;;;;4.46;100.00;102406.50;5072378;28;20533;-82
2023/05/24 03:24:57;;;;;;;17.10;6.22;;;;;;;4.50;100.00;102410.69;5072562;28;20055;-84
2023/05/24 03:27:22;;;;;;;12.80;5.30;;;;;;;4.46;100.00;102403.94;5072300;28;20039;-79
2023/05/24 03:29:48;;;;;;;13.88;5.45;;;;;;;4.64;100.00;102425.88;5072459;28;20028;-86
2023/05/24 03:32:13;;;;;;;14.40;5.45;;;;;;;4.42;100.00;102394.56;5072359;28;20463;-77
2023/05/24 03:34:38;;;;;;;12.77;6.28;;;;;;;4.54;100.00;102405.53;5072699;28;20025;-81
2023/05/24 03:37:04;;;;;;;14.60;5.65;;;;;;;4.61;100.00;102425.03;5072061;28;20108;-79
2023/05/24 03:39:29;;;;;;;12.00;6.00;;;;;;;4.61;100.00;102430.16;5072431;28;20056;-85
2023/05/24 03:41:55;;;;;;;12.73;6.22;;;;;;;4.61;100.00;102429.31;5072435;28;20024;-86
2023/05/24 03:44:20;;;;;;;13.95;6.03;;;;;;;4.60;100.00;102430.16;5072145;28;20548;-86
2023/05/24 03:46:45;;;;;;;14.25;5.75;;;;;;;4.60;100.00;102425.06;5054040;28;20488;-85
2023/05/24 03:49:11;;;;;;;15.00;5.78;;;;;;;4.56;100.00;102420.84;5072411;28;20103;-87
2023/05/24 03:51:36;;;;;;;10.13;5.45;;;;;;;4.53;100.00;102406.41;5071947;28;20040;-87
2023/05/24 03:54:01;;;;;;;14.48;6.30;;;;;;;4.65;100.00;102425.84;5072035;28;20060;-86
2023/05/24 03:56:27;;;;;;;16.15;6.00;;;;;;;4.59;100.00;102400.34;5072220;28;20074;-84
2023/05/24 03:58:52;;;;;;;12.98;6.13;;;;;;;4.77;100.00;102424.84;5072039;28;20016;-87
2023/05/24 04:01:19;;;;;;;14.65;5.32;;;;;;;4.63;100.00;102396.88;5072207;28;20025;-87
2023/05/24 04:03:46;;;;;;;18.20;5.80;;;;;;;4.80;100.00;102417.97;5072050;28;20099;-87
2023/05/24 04:06:12;;;;;;;16.13;6.35;;;;;;;4.84;100.00;102419.63;5072141;28;20162;-87
2023/05/24 04:08:37;;;;;;;16.38;6.13;;;;;;;4.95;100.00;102421.19;5072266;28;20414;-87
2023/05/24 04:11:03;;;;;;;12.10;6.13;;;;;;;4.96;100.00;102416.06;5074145;28;20093;-87
2023/05/24 04:13:28;;;;;;;14.02;6.07;;;;;;;5.02;100.00;102413.41;5075865;28;20039;-83
2023/05/24 04:15:53;;;;;;;17.83;6.50;;;;;;;5.11;100.00;102420.09;5075757;28;20025;-84
2023/05/24 04:18:20;;;;;;;12.43;6.07;;;;;;;5.22;100.00;102420.81;5075518;28;20121;-85
2023/05/24 04:20:45;;;;;;;15.63;6.75;;;;;;;5.28;100.00;102427.53;5075820;28;20055;-87
2023/05/24 04:23:11;;;;;;;11.75;6.10;;;;;;;5.21;100.00;102397.75;5075888;28;20048;-87
2023/05/24 04:25:36;;;;;;;15.65;6.50;;;;;;;5.30;100.00;102405.28;5075704;28;20024;-86
2023/05/24 04:28:02;;;;;;;16.70;6.10;;;;;;;5.38;100.00;102408.56;5075596;28;20074;-87
2023/05/24 04:30:29;;;;;;;15.80;6.00;;;;;;;5.37;100.00;102397.50;5075354;28;20074;-84
2023/05/24 04:32:55;;;;;;;16.35;6.53;;;;;;;5.55;100.00;102405.75;5075464;28;20525;-86
2023/05/24 04:35:21;;;;;;;11.35;6.13;;;;;;;5.63;100.00;102409.88;5075655;28;20364;-87
2023/05/24 04:37:48;;;;;;;13.30;5.93;;;;;;;5.82;100.00;102417.25;5075557;28;20039;-86
2023/05/24 04:40:15;;;;;;;15.18;6.07;;;;;;;5.98;100.00;102427.22;5075468;28;20468;-88
2023/05/24 04:42:40;;;;;;;14.93;6.72;;;;;;;6.16;100.00;102428.59;5075532;28;20379;-85
2023/05/24 04:45:06;;;;;;;16.70;6.22;;;;;;;6.25;100.00;102430.16;5075036;28;20020;-88
2023/05/24 04:47:32;;;;;;;16.77;7.00;;;;;;;6.32;100.00;102426.59;5075305;28;20071;-88
2023/05/24 04:49:57;;;;;;;17.88;6.80;;;;;;;6.41;100.00;102428.97;5075298;28;20031;-88
2023/05/24 04:52:22;;;;;;;16.02;6.85;;;;;;;6.54;100.00;102427.00;5075373;28;20028;-88
2023/05/24 04:54:48;;;;;;;18.23;6.93;;;;;;;6.56;100.00;102422.69;5075277;28;20024;-85
2023/05/24 04:57:14;;;;;;;16.83;7.07;;;;;;;6.73;100.00;102428.31;5075240;28;20439;-81
2023/05/24 04:59:39;;;;;;;17.42;6.70;;;;;;;6.81;100.00;102430.72;5075059;28;20047;-80
2023/05/24 05:02:05;;;;;;;22.05;7.30;;;;;;;6.68;100.00;102389.03;5074766;28;20024;-84
2023/05/24 05:04:30;;;;;;;14.77;7.32;;;;;;;7.65;100.00;102429.56;5057000;28;20037;-87
2023/05/24 05:06:56;;;;;;;18.05;6.82;;;;;;;9.23;99.56;102425.97;5075001;28;20028;-84
2023/05/24 05:09:23;;;;;;;17.30;6.47;;;;;;;10.89;90.62;102433.03;5074821;28;20059;-88
2023/05/24 05:11:49;;;;;;;16.65;6.60;;;;;;;12.47;81.62;102434.22;5074885;28;20032;-86
2023/05/24 05:14:15;;;;;;;13.70;5.10;;;;;;;13.45;75.13;102433.88;5074938;28;20047;-88
2023/05/24 05:16:41;;;;;;;16.70;5.70;;;;;;;14.23;68.97;102431.63;5056564;28;20561;-85
2023/05/24 05:19:06;;;;;;;13.80;5.18;;;;;;;14.89;67.02;102432.38;5074806;28;20044;-87
2023/05/24 05:21:32;;;;;;;12.93;5.30;;;;;;;15.66;64.58;102435.84;5074182;28;20379;-82
2023/05/24 05:23:58;;;;;;;12.27;4.90;;;;;;;16.59;60.55;102437.97;5074053;28;20521;-88
2023/05/24 05:26:25;;;;;;;15.55;5.45;;;;;;;17.12;58.51;102442.44;5074564;28;20029;-87
2023/05/24 05:28:51;;;;;;;13.05;5.28;;;;;;;17.63;55.93;102449.53;5074679;28;20034;-85
2023/05/24 05:31:16;;;;;;;14.45;5.35;;;;;;;17.98;54.18;102432.31;5074426;28;20016;-87
2023/05/24 05:33:41;;;;;;;15.57;5.72;;;;;;;18.19;52.52;102414.34;5074763;28;20025;-86
2023/05/24 05:36:07;;;;;;;17.17;5.07;;;;;;;18.58;52.21;102429.00;5074554;28;20417;-86
2023/05/24 05:38:32;;;;;;;12.93;5.03;;;;;;;18.83;50.28;102432.47;5072768;28;20532;-88
2023/05/24 05:40:57;;;;;;;16.23;5.75;;;;;;;19.41;49.99;102430.81;5074488;28;20029;-86
2023/05/24 05:43:24;;;;;;;15.93;5.35;;;;;;;19.79;49.16;102440.22;5074167;28;20078;-81
2023/05/24 05:45:49;;;;;;;16.15;4.95;;;;;;;19.98;48.59;102427.34;5073951;28;20509;-83
2023/05/24 05:48:14;;;;;;;15.85;5.57;;;;;;;20.24;47.20;102399.06;5074331;28;20021;-87
2023/05/24 05:50:40;;;;;;;14.75;5.63;;;;;;;20.99;46.45;102441.16;5074202;28;20470;-79
2023/05/24 05:53:05;;;;;;;14.85;5.43;;;;;;;21.29;44.64;102437.84;5074198;28;20029;-86
2023/05/24 05:55:30;;;;;;;15.75;5.63;;;;;;;21.51;44.88;102423.72;5056984;28;20463;-84
2023/05/24 05:57:56;;;;;;;16.52;5.78;;;;;;;21.59;43.71;102441.50;5073872;28;20062;-87
2023/05/24 06:00:22;;;;;;;14.02;5.15;;;;;;;21.65;43.28;102426.03;5073986;28;20051;-87
2023/05/24 06:02:47;;;;;;;17.15;5.50;;;;;;;21.66;43.37;102430.34;5073688;28;20078;-80
2023/05/24 06:05:12;;;;;;;16.73;5.60;;;;;;;21.47;43.20;102446.81;5073990;28;20032;-87
2023/05/24 06:07:38;;;;;;;15.25;5.93;;;;;;;21.72;43.69;102448.19;5073788;28;20036;-79
2023/05/24 06:10:04;;;;;;;14.52;6.30;;;;;;;21.69;42.16;102435.31;5073652;28;20024;-76
2023/05/24 06:12:30;;;;;;;16.48;5.30;;;;;;;21.67;41.83;102436.44;5073496;28;20071;-85
2023/05/24 06:14:56;;;;;;;15.00;5.43;;;;;;;21.78;42.49;102460.00;5073872;28;20476;-83
2023/05/24 06:17:23;;;;;;;16.08;5.68;;;;;;;21.71;42.81;102454.44;5073248;28;20100;-83
2023/05/24 06:19:50;;;;;;;13.88;5.50;;;;;;;21.55;43.08;102456.69;5071958;28;20032;-76
2023/05/24 06:22:15;;;;;;;17.10;5.93;;;;;;;21.73;42.72;102463.03;5074335;28;20082;-77
2023/05/24 06:24:42;;;;;;;16.10;5.35;;;;;;;21.47;42.92;102436.31;5074021;28;20024;-74
2023/05/24 06:27:07;;;;;;;16.08;5.18;;;;;;;21.56;43.01;102465.41;5073121;28;20471;-79
2023/05/24 06:29:33;;;;;;;15.48;5.82;;;;;;;20.76;44.50;102464.03;5073716;28;20089;-77
2023/05/24 06:31:58;;;;;;;18.85;6.43;;;;;;;20.05;45.49;102465.25;5073181;28;20060;-77
2023/05/24 06:34:24;;;;;;;13.50;5.57;;;;;;;18.87;48.79;102467.94;5072979;28;20033;-69
2023/05/24 06:36:51;;;;;;;20.48;6.60;;;;;;;17.84;51.13;102462.97;5073278;28;20028;-84
2023/05/24 06:39:17;;;;;;;16.10;5.95;;;;;;;17.10;54.31;102439.06;5073198;28;20024;-74
2023/05/24 06:41:43;;;;;;;20.15;7.15;;;;;;;18.02;52.05;102441.63;5073379;28;20025;-73
2023/05/24 06:44:09;;;;;;;18.38;6.32;;;;;;;18.87;50.56;102460.91;5073267;28;20378;-75
2023/05/24 06:46:34;;;;;;;17.83;6.00;;;;;;;19.29;47.09;102452.69;5054564;28;20557;-83
2023/05/24 06:49:00;;;;;;;17.83;6.18;;;;;;;19.62;48.38;102465.91;5072883;28;20020;-74
2023/05/24 06:51:25;;;;;;;16.27;5.63;;;;;;;20.34;45.67;102427.06;5073122;28;20032;-87
2023/05/24 06:53:51;;;;;;;20.13;6.30;;;;;;;21.43;43.67;102463.81;5073910;28;20082;-84
2023/05/24 06:56:17;;;;;;;14.85;5.65;;;;;;;22.13;42.71;102462.31;5073730;28;20108;-82
2023/05/24 06:58:42;;;;;;;16.30;5.97;;;;;;;22.61;39.97;102461.59;5073344;28;20107;-81
2023/05/24 07:01:08;;;;;;;15.38;5.47;;;;;;;22.88;40.19;102463.59;5073157;28;20024;-85
2023/05/24 07:03:34;;;;;;;15.18;5.53;;;;;;;23.15;39.44;102465.56;5072748;28;20059;-85
2023/05/24 07:05:59;;;;;;;14.32;4.75;;;;;;;22.76;38.52;102452.34;5072865;28;20050;-83
2023/05/24 07:08:25;;;;;;;13.10;4.85;;;;;;;22.63;39.20;102448.31;5073114;28;20066;-85
2023/05/24 07:10:50;;;;;;;18.80;5.68;;;;;;;22.94;38.45;102454.34;5073584;28;20048;-83
2023/05/24 07:13:16;;;;;;;15.65;5.35;;;;;;;22.38;39.58;102460.16;5073684;28;20056;-83
2023/05/24 07:15:41;;;;;;;15.05;5.18;;;;;;;22.00;39.78;102440.59;5073620;28;20055;-83
2023/05/24 07:18:07;;;;;;;15.43;4.82;;;;;;;22.62;38.17;102455.38;5076288;28;20068;-81
2023/05/24 07:20:32;;;;;;;15.30;5.40;;;;;;;21.78;39.19;102465.28;5073056;28;20025;-83
2023/05/24 07:22:59;;;;;;;12.82;4.70;;;;;;;21.12;40.08;102465.47;5073203;28;20054;-79
2023/05/24 07:25:24;;;;;;;12.38;4.72;;;;;;;21.18;40.17;102454.47;5073110;28;20021;-79
2023/05/24 07:27:50;;;;;;;16.52;4.55;;;;;;;21.62;39.69;102454.38;5072882;28;20043;-81
2023/05/24 07:30:15;;;;;;;14.18;5.25;;;;;;;20.52;41.43;102461.56;5072921;28;20020;-80
2023/05/24 07:32:41;;;;;;;13.40;4.97;;;;;;;19.13;44.23;102447.72;5053887;28;20472;-81
2023/05/24 07:35:07;;;;;;;15.48;5.35;;;;;;;18.36;48.06;102439.28;5072579;28;20055;-75
2023/05/24 07:37:32;;;;;;;14.10;5.75;;;;;;;18.10;48.63;102482.94;5072766;28;20029;-74
2023/05/24 07:39:57;;;;;;;15.63;5.80;;;;;;;17.50;48.84;102473.00;5072795;28;20392;-75
2023/05/24 07:42:23;;;;;;;15.63;5.82;;;;;;;16.84;50.25;102476.44;5072526;28;20029;-71
2023/05/24 07:44:48;;;;;;;13.23;5.78;;;;;;;16.35;52.18;102471.63;5072535;28;20032;-74
2023/05/24 07:47:14;;;;;;;19.08;6.43;;;;;;;16.22;53.72;102481.97;5075072;28;20101;-76
2023/05/24 07:49:40;;;;;;;14.02;5.20;;;;;;;16.04;54.89;102478.72;5077584;28;20024;-71
2023/05/24 07:52:05;;;;;;;18.73;6.75;;;;;;;15.88;54.77;102462.31;5076377;28;20020;-73
2023/05/24 07:54:31;;;;;;;19.05;6.88;;;;;;;15.63;56.33;102446.44;5076148;28;20422;-74
2023/05/24 07:56:56;;;;;;;19.50;5.72;;;;;;;15.84;56.78;102475.63;5076466;28;20047;-74
2023/05/24 07:59:22;;;;;;;14.77;6.18;;;;;;;15.58;56.42;102471.88;5076551;28;20021;-72
2023/05/24 08:01:48;;;;;;;15.40;6.88;;;;;;;15.68;56.86;102476.50;5076322;28;20024;-74
2023/05/24 08:04:13;;;;;;;15.48;5.57;;;;;;;15.83;55.92;102479.13;5076372;28;20040;-74
2023/05/24 08:06:38;;;;;;;15.10;4.97;;;;;;;15.65;54.71;102455.84;5075884;28;20025;-75
2023/05/24 08:09:07;;;;;;;15.25;4.75;;;;;;;15.92;54.89;102453.34;5076352;28;20480;-75
2023/05/24 08:11:32;;;;;;;12.35;4.10;;;;;;;16.21;55.74;102445.56;5076593;28;20107;-74
2023/05/24 08:13:57;;;;;;;13.07;4.80;;;;;;;16.84;56.95;102466.84;5076019;28;20531;-74
2023/05/24 08:16:23;;;;;;;16.77;5.63;;;;;;;17.12;54.33;102462.47;5076011;28;20032;-75
2023/05/24 08:18:48;;;;;;;22.58;6.57;;;;;;;17.17;52.81;102456.00;5075776;28;20102;-76
2023/05/24 08:21:14;;;;;;;15.52;4.68;;;;;;;17.20;51.45;102460.19;5076048;28;20116;-75
2023/05/24 08:23:40;;;;;;;14.07;4.63;;;;;;;17.03;51.10;102429.97;5075959;28;20094;-73
2023/05/24 08:26:05;;;;;;;15.35;4.43;;;;;;;17.00;50.65;102452.81;5075963;28;20529;-73
2023/05/24 08:28:30;;;;;;;12.50;4.38;;;;;;;16.72;50.86;102420.69;5075900;28;20033;-75
2023/05/24 08:30:57;;;;;;;15.90;4.80;;;;;;;16.50;52.82;102459.41;5076135;28;20028;-75
2023/05/24 08:33:23;;;;;;;16.67;4.72;;;;;;;16.23;53.63;102470.63;5075634;28;20032;-77
2023/05/24 08:35:50;;;;;;;15.98;4.47;;;;;;;16.14;53.86;102465.13;5075710;28;20028;-74
2023/05/24 08:38:15;;;;;;;14.85;4.50;;;;;;;16.08;52.75;102463.72;5075687;28;20027;-78
2023/05/24 08:40:41;;;;;;;14.13;5.10;;;;;;;15.77;53.66;102418.66;5075706;28;20464;-77
2023/05/24 08:43:10;;;;;;;13.52;4.78;;;;;;;16.17;54.92;102459.72;5075567;28;20024;-75
2023/05/24 08:45:37;;;;;;;9.80;3.78;;;;;;;15.89;54.33;102450.94;5075479;28;20048;-72
2023/05/24 08:48:04;;;;;;;9.52;3.78;;;;;;;15.56;52.83;102445.09;5074858;28;20031;-74
2023/05/24 08:50:31;;;;;;;12.75;3.97;;;;;;;15.63;54.53;102436.88;5075585;28;20031;-73
2023/05/24 08:52:58;;;;;;;17.00;4.13;;;;;;;15.65;53.07;102431.56;5075251;28;20466;-75
2023/05/24 08:55:23;;;;;;;14.88;4.88;;;;;;;15.88;52.40;102441.47;5075558;28;20376;-75
2023/05/24 08:57:50;;;;;;;11.57;4.00;;;;;;;16.13;52.91;102445.22;5075407;28;20028;-74
2023/05/24 09:00:16;;;;;;;14.20;3.80;;;;;;;16.27;52.60;102446.03;5075208;28;20017;-78
2023/05/24 09:02:44;;;;;;;17.17;4.50;;;;;;;16.35;52.76;102419.50;5075246;28;20048;-76
2023/05/24 09:05:15;;;;;;;12.07;3.55;;;;;;;16.50;52.68;102430.72;5075011;28;20115;-81
2023/05/24 09:07:42;;;;;;;13.70;3.85;;;;;;;16.32;51.03;102410.09;5074977;28;20032;-78
2023/05/24 09:10:09;;;;;;;10.85;3.70;;;;;;;16.59;50.69;102437.97;5075164;28;20533;-76
2023/05/24 09:12:36;;;;;;;14.13;4.05;;;;;;;17.05;54.24;102441.16;5075171;28;20029;-83
2023/05/24 09:15:03;;;;;;;13.52;4.20;;;;;;;17.53;51.28;102441.47;5074886;28;20490;-74
2023/05/24 09:17:30;;;;;;;14.05;3.97;;;;;;;17.67;50.09;102438.75;5073543;28;20112;-75
2023/05/24 09:19:57;;;;;;;10.88;3.97;;;;;;;17.24;47.37;102425.13;5074705;28;20490;-75
2023/05/24 09:22:24;;;;;;;11.65;3.85;;;;;;;16.72;48.72;102441.53;5074716;28;20024;-75
2023/05/24 09:24:51;;;;;;;11.65;4.15;;;;;;;16.36;50.54;102410.75;5074953;28;20023;-74
2023/05/24 09:27:20;;;;;;;13.25;4.03;;;;;;;16.46;50.58;102437.09;5074895;28;20031;-78
2023/05/24 09:29:47;;;;;;;15.57;3.88;;;;;;;16.45;50.59;102444.06;5074764;28;20025;-75
2023/05/24 09:32:14;;;;;;;13.38;3.92;;;;;;;16.58;50.59;102436.31;5074781;28;20098;-75
2023/05/24 09:34:46;;;;;;;14.07;4.15;;;;;;;16.65;50.32;102421.97;5074402;28;20074;-78
2023/05/24 09:37:20;;;;;;;10.93;3.85;;;;;;;16.94;51.89;102437.56;5074585;28;20032;-75
2023/05/24 09:39:47;;;;;;;10.90;3.67;;;;;;;16.86;51.34;102425.00;5074699;28;20407;-77
2023/05/24 09:42:25;;;;;;;14.10;4.57;;;;;;;17.11;50.72;102426.88;5056341;28;20094;-77
2023/05/24 09:45:08;;;;;;;13.15;4.35;;;;;;;17.55;49.69;102433.53;5074528;28;20060;-75
2023/05/24 09:47:34;;;;;;;12.15;4.18;;;;;;;17.72;48.66;102436.72;5074204;28;20051;-76
2023/05/24 09:50:01;;;;;;;13.35;4.07;;;;;;;17.50;48.69;102412.94;5074412;28;20020;-76
2023/05/24 09:52:27;;;;;;;11.73;4.07;;;;;;;17.37;48.76;102435.59;5074481;28;20025;-74
2023/05/24 09:54:53;;;;;;;9.98;3.45;;;;;;;17.10;49.38;102433.84;5074348;28;20020;-75
2023/05/24 09:57:21;;;;;;;11.70;4.03;;;;;;;16.89;49.90;102423.00;5055817;28;20095;-73
2023/05/24 09:59:48;;;;;;;14.75;4.18;;;;;;;17.09;50.13;102423.50;5055893;28;20032;-77
2023/05/24 10:02:17;;;;;;;11.55;3.55;;;;;;;17.29;51.42;102417.81;5072545;28;20027;-71
2023/05/24 10:04:43;;;;;;;13.45;3.15;;;;;;;17.54;49.78;102421.41;5074731;28;20066;-82
2023/05/24 10:07:09;;;;;;;14.35;4.07;;;;;;;17.73;48.99;102427.94;5073952;28;20036;-83
2023/05/24 10:09:35;;;;;;;12.57;4.30;;;;;;;17.73;47.47;102421.88;5073685;28;20068;-81
2023/05/24 10:12:06;;;;;;;14.48;4.00;;;;;;;17.71;47.90;102413.31;5073816;28;20527;-80
2023/05/24 10:14:35;;;;;;;10.95;3.25;;;;;;;17.65;47.03;102409.31;5073751;28;20060;-80
2023/05/24 10:17:06;;;;;;;13.23;3.50;;;;;;;17.66;46.31;102420.59;5073515;28;20024;-83
2023/05/24 10:19:33;;;;;;;11.68;4.13;;;;;;;17.41;47.93;102417.03;5073331;28;20041;-80
2023/05/24 10:22:00;;;;;;;9.07;3.42;;;;;;;17.10;48.51;102412.97;5073761;28;20055;-78
2023/05/24 10:24:34;;;;;;;13.18;3.70;;;;;;;17.17;49.47;102422.06;5073438;28;20024;-78
2023/05/24 10:27:04;;;;;;;12.50;3.90;;;;;;;17.20;48.75;102423.63;5073506;28;20089;-77
2023/05/24 10:29:58;;;;;;;9.10;2.92;;;;;;;17.51;49.46;102416.41;5054759;28;20029;-74
2023/05/24 10:32:24;;;;;;;12.25;3.60;;;;;;;17.70;45.93;102414.25;5073490;28;20039;-78
2023/05/24 10:34:50;;;;;;;11.73;3.58;;;;;;;18.13;47.62;102422.59;5073528;28;20090;-81
2023/05/24 10:37:16;;;;;;;10.93;3.60;;;;;;;18.02;44.41;102401.59;5055172;28;20507;-82
2023/05/24 10:39:42;;;;;;;11.23;3.80;;;;;;;17.71;46.22;102374.97;5073290;28;20039;-82
2023/05/24 10:42:07;;;;;;;9.68;3.58;;;;;;;18.02;45.32;102414.66;5073122;28;20024;-82
2023/05/24 10:44:33;;;;;;;9.27;2.95;;;;;;;18.17;46.15;102410.13;5055356;28;20028;-82
2023/05/24 10:47:12;;;;;;;9.70;3.00;;;;;;;18.16;44.26;102406.69;5073080;28;20035;-83
2023/05/24 10:49:50;;;;;;;9.57;3.60;;;;;;;18.00;45.50;102414.78;5073084;28;20059;-82
2023/05/24 10:52:15;;;;;;;10.18;3.28;;;;;;;17.74;45.38;102416.56;5073033;28;20025;-84
2023/05/24 10:55:02;;;;;;;11.20;3.50;;;;;;;17.62;46.20;102413.91;5072978;28;20031;-83
2023/05/24 10:57:29;;;;;;;8.55;3.25;;;;;;;17.38;45.94;102417.19;5073294;28;20094;-84
2023/05/24 10:59:56;;;;;;;9.73;3.40;;;;;;;17.26;49.38;102422.41;5073014;28;20104;-84
2023/05/24 11:02:21;;;;;;;10.43;2.95;;;;;;;17.35;48.11;102425.25;5073102;28;20112;-75
2023/05/24 11:04:48;;;;;;;11.07;3.55;;;;;;;17.27;48.29;102418.84;5073082;28;20040;-84
2023/05/24 11:07:14;;;;;;;11.32;3.67;;;;;;;17.17;48.71;102397.75;5072386;28;20032;-84
2023/05/24 11:09:47;;;;;;;10.77;3.63;;;;;;;17.33;48.88;102419.31;5072919;28;20035;-85
2023/05/24 11:12:16;;;;;;;11.40;3.95;;;;;;;17.33;49.26;102415.84;5054428;28;20388;-80
2023/05/24 11:14:46;;;;;;;12.23;3.90;;;;;;;17.10;48.75;102402.50;5072818;28;20021;-83